sensor_id;sensor_type;location;lat;lon;timestamp;P1;durP1;ratioP1;P2;durP2;ratioP2
42668;SDS011;29384;42.028;21.388;2023-06-14T00:03:45;4.72;;;4.32;;
42668;SDS011;29384;42.028;21.388;2023-06-14T00:06:10;25.13;;;3.00;;
42668;SDS011;29384;42.028;21.388;2023-06-14T00:08:36;5.22;;;4.57;;
42668;SDS011;29384;42.028;21.388;2023-06-14T00:11:01;3.65;;;3.35;;
42668;SDS011;29384;42.028;21.388;2023-06-14T00:13:27;4.63;;;3.40;;
42668;SDS011;29384;42.028;21.388;2023-06-14T00:18:54;4.60;;;4.20;;
42668;SDS011;29384;42.028;21.388;2023-06-14T00:21:20;11.25;;;4.05;;
42668;SDS011;29384;42.028;21.388;2023-06-14T00:23:45;5.20;;;3.92;;
42668;SDS011;29384;42.028;21.388;2023-06-14T00:26:10;4.70;;;4.28;;
42668;SDS011;29384;42.028;21.388;2023-06-14T00:28:36;3.53;;;3.33;;
42668;SDS011;29384;42.028;21.388;2023-06-14T00:34:04;9.35;;;4.22;;
42668;SDS011;29384;42.028;21.388;2023-06-14T00:36:29;6.82;;;4.60;;
42668;SDS011;29384;42.028;21.388;2023-06-14T00:38:55;4.78;;;4.18;;
42668;SDS011;29384;42.028;21.388;2023-06-14T00:41:20;4.82;;;4.07;;
42668;SDS011;29384;42.028;21.388;2023-06-14T00:43:45;14.57;;;5.50;;
42668;SDS011;29384;42.028;21.388;2023-06-14T00:49:32;10.98;;;4.22;;
42668;SDS011;29384;42.028;21.388;2023-06-14T00:51:57;5.82;;;5.25;;
42668;SDS011;29384;42.028;21.388;2023-06-14T00:54:23;4.80;;;4.32;;
42668;SDS011;29384;42.028;21.388;2023-06-14T00:56:48;5.70;;;5.07;;
42668;SDS011;29384;42.028;21.388;2023-06-14T00:59:13;7.55;;;4.20;;
42668;SDS011;29384;42.028;21.388;2023-06-14T01:01:40;4.20;;;3.80;;
42668;SDS011;29384;42.028;21.388;2023-06-14T01:04:05;7.63;;;4.40;;
42668;SDS011;29384;42.028;21.388;2023-06-14T01:06:32;6.28;;;5.18;;
42668;SDS011;29384;42.028;21.388;2023-06-14T01:11:34;4.10;;;3.85;;
42668;SDS011;29384;42.028;21.388;2023-06-14T01:14:01;4.75;;;4.30;;
42668;SDS011;29384;42.028;21.388;2023-06-14T01:16:27;6.05;;;5.07;;
42668;SDS011;29384;42.028;21.388;2023-06-14T01:18:53;4.88;;;4.57;;
42668;SDS011;29384;42.028;21.388;2023-06-14T01:21:24;6.45;;;4.38;;
42668;SDS011;29384;42.028;21.388;2023-06-14T01:23:50;5.38;;;4.95;;
42668;SDS011;29384;42.028;21.388;2023-06-14T01:26:20;13.88;;;4.75;;
42668;SDS011;29384;42.028;21.388;2023-06-14T01:28:45;4.50;;;4.10;;
42668;SDS011;29384;42.028;21.388;2023-06-14T01:34:16;6.15;;;4.50;;
42668;SDS011;29384;42.028;21.388;2023-06-14T01:36:42;4.82;;;4.32;;
42668;SDS011;29384;42.028;21.388;2023-06-14T01:39:09;4.90;;;4.50;;
42668;SDS011;29384;42.028;21.388;2023-06-14T01:41:35;6.43;;;4.40;;
42668;SDS011;29384;42.028;21.388;2023-06-14T01:44:00;5.40;;;5.00;;
42668;SDS011;29384;42.028;21.388;2023-06-14T01:49:29;4.97;;;4.55;;
42668;SDS011;29384;42.028;21.388;2023-06-14T01:51:58;5.47;;;5.05;;
42668;SDS011;29384;42.028;21.388;2023-06-14T01:54:23;5.30;;;4.38;;
42668;SDS011;29384;42.028;21.388;2023-06-14T01:56:50;4.35;;;4.05;;
42668;SDS011;29384;42.028;21.388;2023-06-14T01:59:16;5.47;;;4.78;;
42668;SDS011;29384;42.028;21.388;2023-06-14T02:01:41;4.40;;;4.20;;
42668;SDS011;29384;42.028;21.388;2023-06-14T02:04:06;5.10;;;4.63;;
42668;SDS011;29384;42.028;21.388;2023-06-14T02:06:32;4.78;;;3.80;;
42668;SDS011;29384;42.028;21.388;2023-06-14T02:09:00;4.78;;;4.38;;
42668;SDS011;29384;42.028;21.388;2023-06-14T02:11:25;7.65;;;5.13;;
42668;SDS011;29384;42.028;21.388;2023-06-14T02:13:52;6.57;;;4.78;;
42668;SDS011;29384;42.028;21.388;2023-06-14T02:19:20;5.00;;;4.63;;
42668;SDS011;29384;42.028;21.388;2023-06-14T02:21:47;6.60;;;4.75;;
42668;SDS011;29384;42.028;21.388;2023-06-14T02:24:12;8.45;;;5.25;;
42668;SDS011;29384;42.028;21.388;2023-06-14T02:26:38;9.65;;;4.90;;
42668;SDS011;29384;42.028;21.388;2023-06-14T02:29:04;6.00;;;5.00;;
42668;SDS011;29384;42.028;21.388;2023-06-14T02:34:34;11.30;;;5.38;;
42668;SDS011;29384;42.028;21.388;2023-06-14T02:36:59;4.63;;;4.22;;
42668;SDS011;29384;42.028;21.388;2023-06-14T02:39:25;7.47;;;5.22;;
42668;SDS011;29384;42.028;21.388;2023-06-14T02:41:50;10.18;;;4.70;;
42668;SDS011;29384;42.028;21.388;2023-06-14T02:44:17;6.35;;;5.15;;
42668;SDS011;29384;42.028;21.388;2023-06-14T02:49:45;8.98;;;5.18;;
42668;SDS011;29384;42.028;21.388;2023-06-14T02:52:13;5.43;;;4.90;;
42668;SDS011;29384;42.028;21.388;2023-06-14T02:54:38;9.50;;;6.25;;
42668;SDS011;29384;42.028;21.388;2023-06-14T02:57:05;9.85;;;6.80;;
42668;SDS011;29384;42.028;21.388;2023-06-14T02:59:32;6.88;;;5.82;;
42668;SDS011;29384;42.028;21.388;2023-06-14T03:01:57;11.02;;;5.95;;
42668;SDS011;29384;42.028;21.388;2023-06-14T03:04:22;8.18;;;5.72;;
42668;SDS011;29384;42.028;21.388;2023-06-14T03:06:50;9.38;;;6.40;;
42668;SDS011;29384;42.028;21.388;2023-06-14T03:09:16;12.80;;;7.10;;
42668;SDS011;29384;42.028;21.388;2023-06-14T03:11:41;10.10;;;6.72;;
42668;SDS011;29384;42.028;21.388;2023-06-14T03:14:07;8.50;;;6.55;;
42668;SDS011;29384;42.028;21.388;2023-06-14T03:19:36;10.25;;;5.25;;
42668;SDS011;29384;42.028;21.388;2023-06-14T03:22:01;6.93;;;5.18;;
42668;SDS011;29384;42.028;21.388;2023-06-14T03:24:27;6.22;;;5.47;;
42668;SDS011;29384;42.028;21.388;2023-06-14T03:26:53;11.57;;;7.03;;
42668;SDS011;29384;42.028;21.388;2023-06-14T03:29:18;12.48;;;5.82;;
42668;SDS011;29384;42.028;21.388;2023-06-14T03:34:46;7.10;;;6.00;;
42668;SDS011;29384;42.028;21.388;2023-06-14T03:37:11;9.18;;;5.65;;
42668;SDS011;29384;42.028;21.388;2023-06-14T03:39:37;10.07;;;6.20;;
42668;SDS011;29384;42.028;21.388;2023-06-14T03:42:02;19.30;;;6.10;;
42668;SDS011;29384;42.028;21.388;2023-06-14T03:44:28;21.10;;;7.10;;
42668;SDS011;29384;42.028;21.388;2023-06-14T03:49:56;11.00;;;6.68;;
42668;SDS011;29384;42.028;21.388;2023-06-14T03:52:21;9.23;;;5.63;;
42668;SDS011;29384;42.028;21.388;2023-06-14T03:54:50;6.35;;;5.55;;
42668;SDS011;29384;42.028;21.388;2023-06-14T03:57:16;6.15;;;5.55;;
42668;SDS011;29384;42.028;21.388;2023-06-14T03:59:41;6.43;;;4.53;;
42668;SDS011;29384;42.028;21.388;2023-06-14T04:05:09;5.63;;;5.13;;
42668;SDS011;29384;42.028;21.388;2023-06-14T04:07:35;8.90;;;4.95;;
42668;SDS011;29384;42.028;21.388;2023-06-14T04:10:05;9.50;;;5.32;;
42668;SDS011;29384;42.028;21.388;2023-06-14T04:12:31;4.88;;;4.45;;
42668;SDS011;29384;42.028;21.388;2023-06-14T04:14:56;9.05;;;5.45;;
42668;SDS011;29384;42.028;21.388;2023-06-14T04:17:22;4.82;;;4.53;;
42668;SDS011;29384;42.028;21.388;2023-06-14T04:19:47;7.00;;;5.28;;
42668;SDS011;29384;42.028;21.388;2023-06-14T04:22:12;8.05;;;4.85;;
42668;SDS011;29384;42.028;21.388;2023-06-14T04:24:38;5.80;;;5.30;;
42668;SDS011;29384;42.028;21.388;2023-06-14T04:27:03;5.07;;;4.57;;
42668;SDS011;29384;42.028;21.388;2023-06-14T04:29:28;6.10;;;4.72;;
42668;SDS011;29384;42.028;21.388;2023-06-14T04:34:57;5.40;;;4.90;;
42668;SDS011;29384;42.028;21.388;2023-06-14T04:37:24;8.43;;;4.82;;
42668;SDS011;29384;42.028;21.388;2023-06-14T04:39:49;4.40;;;3.83;;
42668;SDS011;29384;42.028;21.388;2023-06-14T04:42:15;4.93;;;4.53;;
42668;SDS011;29384;42.028;21.388;2023-06-14T04:44:41;8.13;;;4.90;;
42668;SDS011;29384;42.028;21.388;2023-06-14T04:50:09;18.40;;;4.80;;
42668;SDS011;29384;42.028;21.388;2023-06-14T04:52:36;6.85;;;4.90;;
42668;SDS011;29384;42.028;21.388;2023-06-14T04:55:02;22.17;;;5.60;;
42668;SDS011;29384;42.028;21.388;2023-06-14T04:57:28;5.10;;;4.72;;
42668;SDS011;29384;42.028;21.388;2023-06-14T04:59:54;8.25;;;5.80;;
42668;SDS011;29384;42.028;21.388;2023-06-14T05:05:22;5.80;;;4.35;;
42668;SDS011;29384;42.028;21.388;2023-06-14T05:07:49;8.80;;;4.70;;
42668;SDS011;29384;42.028;21.388;2023-06-14T05:10:14;6.18;;;5.47;;
42668;SDS011;29384;42.028;21.388;2023-06-14T05:12:40;4.03;;;3.72;;
42668;SDS011;29384;42.028;21.388;2023-06-14T05:15:05;36.85;;;5.15;;
42668;SDS011;29384;42.028;21.388;2023-06-14T05:20:52;6.07;;;4.78;;
42668;SDS011;29384;42.028;21.388;2023-06-14T05:23:17;5.03;;;4.47;;
42668;SDS011;29384;42.028;21.388;2023-06-14T05:25:43;6.13;;;4.53;;
42668;SDS011;29384;42.028;21.388;2023-06-14T05:28:08;16.77;;;5.07;;
42668;SDS011;29384;42.028;21.388;2023-06-14T05:30:34;4.75;;;4.30;;
42668;SDS011;29384;42.028;21.388;2023-06-14T05:32:59;4.50;;;4.10;;
42668;SDS011;29384;42.028;21.388;2023-06-14T05:35:25;4.70;;;4.30;;
42668;SDS011;29384;42.028;21.388;2023-06-14T05:37:51;5.35;;;4.95;;
42668;SDS011;29384;42.028;21.388;2023-06-14T05:40:17;6.15;;;4.40;;
42668;SDS011;29384;42.028;21.388;2023-06-14T05:42:42;5.78;;;5.00;;
42668;SDS011;29384;42.028;21.388;2023-06-14T05:45:08;9.18;;;3.83;;
42668;SDS011;29384;42.028;21.388;2023-06-14T05:50:36;5.15;;;4.45;;
42668;SDS011;29384;42.028;21.388;2023-06-14T05:53:01;4.57;;;4.18;;
42668;SDS011;29384;42.028;21.388;2023-06-14T05:55:26;5.22;;;4.45;;
42668;SDS011;29384;42.028;21.388;2023-06-14T05:57:52;4.88;;;4.47;;
42668;SDS011;29384;42.028;21.388;2023-06-14T06:00:17;5.60;;;4.40;;
42668;SDS011;29384;42.028;21.388;2023-06-14T06:05:45;4.50;;;4.10;;
42668;SDS011;29384;42.028;21.388;2023-06-14T06:08:11;5.07;;;3.63;;
42668;SDS011;29384;42.028;21.388;2023-06-14T06:10:36;3.78;;;3.55;;
42668;SDS011;29384;42.028;21.388;2023-06-14T06:13:01;4.32;;;4.03;;
42668;SDS011;29384;42.028;21.388;2023-06-14T06:15:27;3.38;;;3.17;;
42668;SDS011;29384;42.028;21.388;2023-06-14T06:17:52;5.82;;;3.90;;
42668;SDS011;29384;42.028;21.388;2023-06-14T06:20:17;5.35;;;3.60;;
42668;SDS011;29384;42.028;21.388;2023-06-14T06:22:43;4.72;;;4.32;;
42668;SDS011;29384;42.028;21.388;2023-06-14T06:25:08;6.68;;;3.83;;
42668;SDS011;29384;42.028;21.388;2023-06-14T06:27:34;7.97;;;5.15;;
42668;SDS011;29384;42.028;21.388;2023-06-14T06:30:00;4.22;;;3.80;;
42668;SDS011;29384;42.028;21.388;2023-06-14T06:35:29;15.75;;;6.15;;
42668;SDS011;29384;42.028;21.388;2023-06-14T06:37:55;5.38;;;4.97;;
42668;SDS011;29384;42.028;21.388;2023-06-14T06:40:21;6.68;;;4.93;;
42668;SDS011;29384;42.028;21.388;2023-06-14T06:42:46;5.80;;;4.68;;
42668;SDS011;29384;42.028;21.388;2023-06-14T06:45:11;7.60;;;4.80;;
42668;SDS011;29384;42.028;21.388;2023-06-14T06:50:39;8.23;;;6.80;;
42668;SDS011;29384;42.028;21.388;2023-06-14T06:53:05;10.13;;;5.68;;
42668;SDS011;29384;42.028;21.388;2023-06-14T06:55:31;5.88;;;5.28;;
42668;SDS011;29384;42.028;21.388;2023-06-14T06:57:57;9.48;;;6.10;;
42668;SDS011;29384;42.028;21.388;2023-06-14T07:00:22;8.60;;;6.03;;
42668;SDS011;29384;42.028;21.388;2023-06-14T07:05:50;10.07;;;5.78;;
42668;SDS011;29384;42.028;21.388;2023-06-14T07:08:16;6.70;;;5.18;;
42668;SDS011;29384;42.028;21.388;2023-06-14T07:10:41;10.52;;;6.03;;
42668;SDS011;29384;42.028;21.388;2023-06-14T07:13:06;7.18;;;5.07;;
42668;SDS011;29384;42.028;21.388;2023-06-14T07:15:31;6.30;;;5.60;;
42668;SDS011;29384;42.028;21.388;2023-06-14T07:20:59;7.75;;;5.45;;
42668;SDS011;29384;42.028;21.388;2023-06-14T07:23:25;5.78;;;5.28;;
42668;SDS011;29384;42.028;21.388;2023-06-14T07:25:50;5.28;;;4.68;;
42668;SDS011;29384;42.028;21.388;2023-06-14T07:28:16;3.65;;;3.45;;
42668;SDS011;29384;42.028;21.388;2023-06-14T07:30:41;4.00;;;3.70;;
42668;SDS011;29384;42.028;21.388;2023-06-14T07:36:09;7.57;;;4.63;;
42668;SDS011;29384;42.028;21.388;2023-06-14T07:38:34;8.20;;;4.57;;
42668;SDS011;29384;42.028;21.388;2023-06-14T07:41:01;10.55;;;4.35;;
42668;SDS011;29384;42.028;21.388;2023-06-14T07:43:26;4.53;;;4.20;;
42668;SDS011;29384;42.028;21.388;2023-06-14T07:45:52;7.32;;;4.07;;
42668;SDS011;29384;42.028;21.388;2023-06-14T07:48:18;6.55;;;4.20;;
42668;SDS011;29384;42.028;21.388;2023-06-14T07:50:43;5.50;;;5.07;;
42668;SDS011;29384;42.028;21.388;2023-06-14T07:53:08;5.85;;;4.00;;
42668;SDS011;29384;42.028;21.388;2023-06-14T07:55:34;7.35;;;4.63;;
42668;SDS011;29384;42.028;21.388;2023-06-14T07:58:02;5.13;;;3.97;;
42668;SDS011;29384;42.028;21.388;2023-06-14T08:00:27;4.20;;;3.80;;
42668;SDS011;29384;42.028;21.388;2023-06-14T08:05:55;5.68;;;4.63;;
42668;SDS011;29384;42.028;21.388;2023-06-14T08:08:20;3.92;;;3.67;;
42668;SDS011;29384;42.028;21.388;2023-06-14T08:10:46;4.90;;;4.05;;
42668;SDS011;29384;42.028;21.388;2023-06-14T08:13:11;8.52;;;4.05;;
42668;SDS011;29384;42.028;21.388;2023-06-14T08:15:37;4.28;;;3.97;;
42668;SDS011;29384;42.028;21.388;2023-06-14T08:21:04;4.40;;;3.33;;
42668;SDS011;29384;42.028;21.388;2023-06-14T08:23:30;4.35;;;3.55;;
42668;SDS011;29384;42.028;21.388;2023-06-14T08:25:55;7.97;;;3.78;;
42668;SDS011;29384;42.028;21.388;2023-06-14T08:28:21;3.70;;;3.50;;
42668;SDS011;29384;42.028;21.388;2023-06-14T08:30:46;3.85;;;3.35;;
42668;SDS011;29384;42.028;21.388;2023-06-14T08:36:14;4.68;;;3.65;;
42668;SDS011;29384;42.028;21.388;2023-06-14T08:38:40;3.28;;;3.08;;
42668;SDS011;29384;42.028;21.388;2023-06-14T08:41:05;4.38;;;4.00;;
42668;SDS011;29384;42.028;21.388;2023-06-14T08:43:31;4.90;;;3.65;;
42668;SDS011;29384;42.028;21.388;2023-06-14T08:46:00;4.07;;;3.78;;
42668;SDS011;29384;42.028;21.388;2023-06-14T08:51:30;4.53;;;3.92;;
42668;SDS011;29384;42.028;21.388;2023-06-14T08:53:59;2.75;;;2.65;;
42668;SDS011;29384;42.028;21.388;2023-06-14T08:56:26;3.85;;;3.55;;
42668;SDS011;29384;42.028;21.388;2023-06-14T08:58:53;3.08;;;2.97;;
42668;SDS011;29384;42.028;21.388;2023-06-14T09:01:18;4.10;;;3.75;;
42668;SDS011;29384;42.028;21.388;2023-06-14T09:03:44;3.40;;;3.13;;
42668;SDS011;29384;42.028;21.388;2023-06-14T09:06:09;4.10;;;3.88;;
42668;SDS011;29384;42.028;21.388;2023-06-14T09:08:40;3.17;;;2.97;;
42668;SDS011;29384;42.028;21.388;2023-06-14T09:11:05;6.95;;;4.32;;
42668;SDS011;29384;42.028;21.388;2023-06-14T09:13:30;4.85;;;3.35;;
42668;SDS011;29384;42.028;21.388;2023-06-14T09:15:56;8.80;;;4.65;;
42668;SDS011;29384;42.028;21.388;2023-06-14T09:21:24;3.78;;;3.53;;
42668;SDS011;29384;42.028;21.388;2023-06-14T09:23:49;3.13;;;2.92;;
42668;SDS011;29384;42.028;21.388;2023-06-14T09:26:16;3.53;;;3.22;;
42668;SDS011;29384;42.028;21.388;2023-06-14T09:28:48;3.75;;;3.55;;
42668;SDS011;29384;42.028;21.388;2023-06-14T09:31:14;5.38;;;3.08;;
42668;SDS011;29384;42.028;21.388;2023-06-14T09:36:42;3.10;;;2.85;;
42668;SDS011;29384;42.028;21.388;2023-06-14T09:39:08;2.47;;;2.28;;
42668;SDS011;29384;42.028;21.388;2023-06-14T09:41:37;2.60;;;2.40;;
42668;SDS011;29384;42.028;21.388;2023-06-14T09:44:04;2.42;;;2.22;;
42668;SDS011;29384;42.028;21.388;2023-06-14T09:46:30;7.68;;;3.40;;
42668;SDS011;29384;42.028;21.388;2023-06-14T09:48:56;2.60;;;2.50;;
42668;SDS011;29384;42.028;21.388;2023-06-14T09:51:22;2.00;;;1.90;;
42668;SDS011;29384;42.028;21.388;2023-06-14T09:53:48;7.63;;;2.65;;
42668;SDS011;29384;42.028;21.388;2023-06-14T09:56:15;4.72;;;3.17;;
42668;SDS011;29384;42.028;21.388;2023-06-14T09:58:41;3.25;;;2.78;;
42668;SDS011;29384;42.028;21.388;2023-06-14T10:01:06;2.55;;;2.45;;
42668;SDS011;29384;42.028;21.388;2023-06-14T10:06:36;1.95;;;1.77;;
42668;SDS011;29384;42.028;21.388;2023-06-14T10:09:03;1.40;;;1.40;;
42668;SDS011;29384;42.028;21.388;2023-06-14T10:11:28;2.47;;;2.20;;
42668;SDS011;29384;42.028;21.388;2023-06-14T10:13:57;1.50;;;1.45;;
42668;SDS011;29384;42.028;21.388;2023-06-14T10:16:28;3.80;;;1.48;;
42668;SDS011;29384;42.028;21.388;2023-06-14T10:22:01;1.75;;;1.70;;
42668;SDS011;29384;42.028;21.388;2023-06-14T10:24:31;2.25;;;2.15;;
42668;SDS011;29384;42.028;21.388;2023-06-14T10:26:57;2.38;;;2.05;;
42668;SDS011;29384;42.028;21.388;2023-06-14T10:29:24;7.00;;;1.70;;
42668;SDS011;29384;42.028;21.388;2023-06-14T10:31:50;1.55;;;1.55;;
42668;SDS011;29384;42.028;21.388;2023-06-14T10:34:25;1.80;;;1.80;;
42668;SDS011;29384;42.028;21.388;2023-06-14T10:37:01;3.15;;;1.77;;
42668;SDS011;29384;42.028;21.388;2023-06-14T10:39:30;9.10;;;2.25;;
42668;SDS011;29384;42.028;21.388;2023-06-14T10:41:56;2.03;;;1.92;;
42668;SDS011;29384;42.028;21.388;2023-06-14T10:46:52;1.50;;;1.50;;
42668;SDS011;29384;42.028;21.388;2023-06-14T10:49:18;1.42;;;1.42;;
42668;SDS011;29384;42.028;21.388;2023-06-14T10:51:44;2.63;;;2.42;;
42668;SDS011;29384;42.028;21.388;2023-06-14T10:54:12;2.38;;;1.83;;
42668;SDS011;29384;42.028;21.388;2023-06-14T10:59:13;2.13;;;2.03;;
42668;SDS011;29384;42.028;21.388;2023-06-14T11:01:41;2.00;;;1.90;;
42668;SDS011;29384;42.028;21.388;2023-06-14T11:12:56;1.77;;;1.77;;
42668;SDS011;29384;42.028;21.388;2023-06-14T11:15:31;2.03;;;1.95;;
42668;SDS011;29384;42.028;21.388;2023-06-14T11:17:56;4.65;;;2.33;;
42668;SDS011;29384;42.028;21.388;2023-06-14T11:20:25;1.70;;;1.70;;
42668;SDS011;29384;42.028;21.388;2023-06-14T11:22:51;5.05;;;2.22;;
42668;SDS011;29384;42.028;21.388;2023-06-14T11:25:17;2.00;;;1.85;;
42668;SDS011;29384;42.028;21.388;2023-06-14T11:27:42;4.78;;;2.67;;
42668;SDS011;29384;42.028;21.388;2023-06-14T11:30:08;1.60;;;1.48;;
42668;SDS011;29384;42.028;21.388;2023-06-14T11:32:35;2.00;;;1.90;;
42668;SDS011;29384;42.028;21.388;2023-06-14T11:35:00;2.10;;;2.00;;
42668;SDS011;29384;42.028;21.388;2023-06-14T11:37:28;2.28;;;2.13;;
42668;SDS011;29384;42.028;21.388;2023-06-14T11:39:58;2.47;;;2.33;;
42668;SDS011;29384;42.028;21.388;2023-06-14T11:42:24;2.55;;;2.35;;
42668;SDS011;29384;42.028;21.388;2023-06-14T11:44:49;4.10;;;1.95;;
42668;SDS011;29384;42.028;21.388;2023-06-14T11:47:15;2.25;;;2.15;;
42668;SDS011;29384;42.028;21.388;2023-06-14T11:49:40;3.70;;;2.42;;
42668;SDS011;29384;42.028;21.388;2023-06-14T11:52:07;3.90;;;2.50;;
42668;SDS011;29384;42.028;21.388;2023-06-14T11:54:32;2.55;;;2.40;;
42668;SDS011;29384;42.028;21.388;2023-06-14T11:56:58;2.65;;;2.10;;
42668;SDS011;29384;42.028;21.388;2023-06-14T11:59:24;2.80;;;2.70;;
42668;SDS011;29384;42.028;21.388;2023-06-14T12:01:49;2.92;;;2.83;;
42668;SDS011;29384;42.028;21.388;2023-06-14T12:07:17;3.03;;;2.80;;
42668;SDS011;29384;42.028;21.388;2023-06-14T12:12:22;4.80;;;2.65;;
42668;SDS011;29384;42.028;21.388;2023-06-14T12:14:47;2.60;;;2.28;;
42668;SDS011;29384;42.028;21.388;2023-06-14T12:17:13;2.53;;;2.42;;
42668;SDS011;29384;42.028;21.388;2023-06-14T12:19:41;2.63;;;2.53;;
42668;SDS011;29384;42.028;21.388;2023-06-14T12:22:08;2.53;;;2.42;;
42668;SDS011;29384;42.028;21.388;2023-06-14T12:24:34;3.60;;;3.50;;
42668;SDS011;29384;42.028;21.388;2023-06-14T12:26:59;3.22;;;2.95;;
42668;SDS011;29384;42.028;21.388;2023-06-14T12:29:25;3.10;;;2.90;;
42668;SDS011;29384;42.028;21.388;2023-06-14T12:31:50;3.45;;;3.25;;
42668;SDS011;29384;42.028;21.388;2023-06-14T12:37:19;7.22;;;3.10;;
42668;SDS011;29384;42.028;21.388;2023-06-14T12:39:44;4.05;;;3.60;;
42668;SDS011;29384;42.028;21.388;2023-06-14T12:42:09;7.30;;;3.83;;
42668;SDS011;29384;42.028;21.388;2023-06-14T12:44:34;4.28;;;3.17;;
42668;SDS011;29384;42.028;21.388;2023-06-14T12:47:05;3.28;;;3.08;;
42668;SDS011;29384;42.028;21.388;2023-06-14T12:52:33;4.03;;;3.65;;
42668;SDS011;29384;42.028;21.388;2023-06-14T12:55:04;3.70;;;3.45;;
42668;SDS011;29384;42.028;21.388;2023-06-14T12:57:30;5.38;;;4.85;;
42668;SDS011;29384;42.028;21.388;2023-06-14T12:59:55;20.00;;;3.83;;
42668;SDS011;29384;42.028;21.388;2023-06-14T13:02:21;3.15;;;2.97;;
42668;SDS011;29384;42.028;21.388;2023-06-14T13:04:48;3.95;;;3.65;;
42668;SDS011;29384;42.028;21.388;2023-06-14T13:07:14;3.65;;;3.45;;
42668;SDS011;29384;42.028;21.388;2023-06-14T13:09:40;3.55;;;3.45;;
42668;SDS011;29384;42.028;21.388;2023-06-14T13:12:05;4.22;;;3.60;;
42668;SDS011;29384;42.028;21.388;2023-06-14T13:14:31;3.83;;;3.35;;
42668;SDS011;29384;42.028;21.388;2023-06-14T13:16:57;4.05;;;3.75;;
42668;SDS011;29384;42.028;21.388;2023-06-14T13:22:25;4.40;;;3.15;;
42668;SDS011;29384;42.028;21.388;2023-06-14T13:24:50;4.05;;;3.75;;
42668;SDS011;29384;42.028;21.388;2023-06-14T13:27:15;4.63;;;3.97;;
42668;SDS011;29384;42.028;21.388;2023-06-14T13:29:41;10.13;;;3.45;;
42668;SDS011;29384;42.028;21.388;2023-06-14T13:32:06;4.13;;;3.80;;
42668;SDS011;29384;42.028;21.388;2023-06-14T13:37:34;4.13;;;3.83;;
42668;SDS011;29384;42.028;21.388;2023-06-14T13:40:00;4.22;;;3.92;;
42668;SDS011;29384;42.028;21.388;2023-06-14T13:42:25;3.53;;;3.33;;
42668;SDS011;29384;42.028;21.388;2023-06-14T13:44:50;3.85;;;3.65;;
42668;SDS011;29384;42.028;21.388;2023-06-14T13:47:17;5.00;;;3.92;;
42668;SDS011;29384;42.028;21.388;2023-06-14T13:52:45;4.78;;;4.38;;
42668;SDS011;29384;42.028;21.388;2023-06-14T13:55:11;9.23;;;4.53;;
42668;SDS011;29384;42.028;21.388;2023-06-14T13:57:36;4.18;;;3.97;;
42668;SDS011;29384;42.028;21.388;2023-06-14T14:00:02;4.93;;;4.53;;
42668;SDS011;29384;42.028;21.388;2023-06-14T14:02:28;5.10;;;4.75;;
42668;SDS011;29384;42.028;21.388;2023-06-14T14:07:56;4.35;;;4.15;;
42668;SDS011;29384;42.028;21.388;2023-06-14T14:10:22;5.15;;;4.65;;
42668;SDS011;29384;42.028;21.388;2023-06-14T14:12:48;5.20;;;4.78;;
42668;SDS011;29384;42.028;21.388;2023-06-14T14:15:14;5.03;;;4.68;;
42668;SDS011;29384;42.028;21.388;2023-06-14T14:17:40;5.85;;;5.40;;
42668;SDS011;29384;42.028;21.388;2023-06-14T14:23:07;5.05;;;4.60;;
42668;SDS011;29384;42.028;21.388;2023-06-14T14:25:33;7.75;;;5.20;;
42668;SDS011;29384;42.028;21.388;2023-06-14T14:27:58;5.30;;;4.43;;
42668;SDS011;29384;42.028;21.388;2023-06-14T14:30:23;5.47;;;5.07;;
42668;SDS011;29384;42.028;21.388;2023-06-14T14:32:49;10.63;;;5.25;;
42668;SDS011;29384;42.028;21.388;2023-06-14T14:35:16;6.13;;;5.45;;
42668;SDS011;29384;42.028;21.388;2023-06-14T14:37:41;5.50;;;5.10;;
42668;SDS011;29384;42.028;21.388;2023-06-14T14:40:07;6.55;;;5.95;;
42668;SDS011;29384;42.028;21.388;2023-06-14T14:42:33;6.20;;;5.78;;
42668;SDS011;29384;42.028;21.388;2023-06-14T14:44:59;5.30;;;4.90;;
42668;SDS011;29384;42.028;21.388;2023-06-14T14:47:24;5.55;;;5.10;;
42668;SDS011;29384;42.028;21.388;2023-06-14T14:52:52;6.05;;;5.30;;
42668;SDS011;29384;42.028;21.388;2023-06-14T14:55:17;6.45;;;5.22;;
42668;SDS011;29384;42.028;21.388;2023-06-14T14:57:43;6.60;;;6.00;;
42668;SDS011;29384;42.028;21.388;2023-06-14T15:00:08;7.13;;;6.43;;
42668;SDS011;29384;42.028;21.388;2023-06-14T15:02:34;6.22;;;5.68;;
42668;SDS011;29384;42.028;21.388;2023-06-14T15:08:02;7.15;;;6.53;;
42668;SDS011;29384;42.028;21.388;2023-06-14T15:10:28;6.40;;;5.78;;
42668;SDS011;29384;42.028;21.388;2023-06-14T15:12:53;6.03;;;5.40;;
42668;SDS011;29384;42.028;21.388;2023-06-14T15:15:19;7.13;;;6.22;;
42668;SDS011;29384;42.028;21.388;2023-06-14T15:17:44;6.28;;;5.65;;
42668;SDS011;29384;42.028;21.388;2023-06-14T15:23:12;5.07;;;4.68;;
42668;SDS011;29384;42.028;21.388;2023-06-14T15:25:44;6.53;;;6.03;;
42668;SDS011;29384;42.028;21.388;2023-06-14T15:28:09;7.95;;;5.85;;
42668;SDS011;29384;42.028;21.388;2023-06-14T15:30:35;9.75;;;5.60;;
42668;SDS011;29384;42.028;21.388;2023-06-14T15:33:00;6.20;;;5.75;;
42668;SDS011;29384;42.028;21.388;2023-06-14T15:38:28;5.60;;;5.22;;
42668;SDS011;29384;42.028;21.388;2023-06-14T15:40:54;6.80;;;6.13;;
42668;SDS011;29384;42.028;21.388;2023-06-14T15:43:20;6.10;;;5.50;;
42668;SDS011;29384;42.028;21.388;2023-06-14T15:45:48;7.00;;;5.13;;
42668;SDS011;29384;42.028;21.388;2023-06-14T15:48:13;4.85;;;4.38;;
42668;SDS011;29384;42.028;21.388;2023-06-14T15:50:38;6.03;;;5.60;;
42668;SDS011;29384;42.028;21.388;2023-06-14T15:53:04;5.85;;;5.07;;
42668;SDS011;29384;42.028;21.388;2023-06-14T15:55:29;6.85;;;5.93;;
42668;SDS011;29384;42.028;21.388;2023-06-14T15:57:54;6.28;;;5.65;;
42668;SDS011;29384;42.028;21.388;2023-06-14T16:00:20;6.28;;;5.75;;
42668;SDS011;29384;42.028;21.388;2023-06-14T16:02:45;5.15;;;4.75;;
42668;SDS011;29384;42.028;21.388;2023-06-14T16:08:13;5.07;;;4.68;;
42668;SDS011;29384;42.028;21.388;2023-06-14T16:10:40;5.72;;;5.07;;
42668;SDS011;29384;42.028;21.388;2023-06-14T16:13:05;7.00;;;5.38;;
42668;SDS011;29384;42.028;21.388;2023-06-14T16:15:30;5.20;;;4.80;;
42668;SDS011;29384;42.028;21.388;2023-06-14T16:17:56;5.18;;;4.78;;
42668;SDS011;29384;42.028;21.388;2023-06-14T16:23:23;10.07;;;5.78;;
42668;SDS011;29384;42.028;21.388;2023-06-14T16:25:49;7.28;;;6.57;;
42668;SDS011;29384;42.028;21.388;2023-06-14T16:28:14;6.30;;;5.80;;
42668;SDS011;29384;42.028;21.388;2023-06-14T16:30:39;6.43;;;5.93;;
42668;SDS011;29384;42.028;21.388;2023-06-14T16:33:05;5.22;;;4.30;;
42668;SDS011;29384;42.028;21.388;2023-06-14T16:38:33;8.27;;;6.43;;
42668;SDS011;29384;42.028;21.388;2023-06-14T16:40:59;5.95;;;5.55;;
42668;SDS011;29384;42.028;21.388;2023-06-14T16:43:24;5.70;;;5.18;;
42668;SDS011;29384;42.028;21.388;2023-06-14T16:45:50;13.90;;;5.70;;
42668;SDS011;29384;42.028;21.388;2023-06-14T16:48:15;8.30;;;6.07;;
42668;SDS011;29384;42.028;21.388;2023-06-14T16:53:43;7.78;;;6.38;;
42668;SDS011;29384;42.028;21.388;2023-06-14T16:56:08;6.45;;;5.38;;
42668;SDS011;29384;42.028;21.388;2023-06-14T16:58:33;14.75;;;6.72;;
42668;SDS011;29384;42.028;21.388;2023-06-14T17:00:59;9.00;;;5.90;;
42668;SDS011;29384;42.028;21.388;2023-06-14T17:03:24;12.55;;;5.82;;
42668;SDS011;29384;42.028;21.388;2023-06-14T17:08:53;12.18;;;6.00;;
42668;SDS011;29384;42.028;21.388;2023-06-14T17:11:18;10.88;;;6.10;;
42668;SDS011;29384;42.028;21.388;2023-06-14T17:13:47;8.45;;;5.82;;